Time;durP1;ratioP1;P1;durP2;ratioP2;P2;SDS_P1;SDS_P2;PMS_P1;PMS_P2;Temp;Humidity;BMP_temperature;BMP_pressure;BME280_temperature;BME280_humidity;BME280_pressure;Samples;Min_cycle;Max_cycle;Signal;HPM_P1;HPM_P2
2022/08/20 00:01:46;;;;;;;2.08;1.00;;;25.50;57.80;;;;;;4993267;28;20030;-44
2022/08/20 00:04:13;;;;;;;1.65;0.90;;;25.50;57.50;;;;;;4990819;28;20037;-43
2022/08/20 00:06:39;;;;;;;1.23;0.90;;;25.50;57.40;;;;;;4998438;28;20117;-43
2022/08/20 00:09:05;;;;;;;1.30;1.20;;;25.50;58.40;;;;;;4993092;28;20464;-43
2022/08/20 00:11:32;;;;;;;1.13;0.75;;;25.50;57.70;;;;;;4992003;28;20109;-45
2022/08/20 00:14:01;;;;;;;0.90;0.80;;;25.50;57.60;;;;;;4993591;28;20348;-42
2022/08/20 00:16:31;;;;;;;1.52;0.80;;;25.40;58.50;;;;;;4987756;28;20456;-42
2022/08/20 00:18:57;;;;;;;1.00;0.90;;;25.40;57.50;;;;;;4990365;28;20133;-42
2022/08/20 00:21:24;;;;;;;1.35;1.00;;;25.50;57.60;;;;;;4991403;28;20034;-42
2022/08/20 00:23:51;;;;;;;0.98;0.85;;;25.50;57.50;;;;;;4993016;28;20113;-43
2022/08/20 00:26:18;;;;;;;2.63;1.20;;;25.50;57.90;;;;;;4991895;28;20030;-42
2022/08/20 00:28:44;;;;;;;1.90;1.17;;;25.50;57.50;;;;;;4992435;28;20054;-42
2022/08/20 00:31:13;;;;;;;1.83;0.80;;;25.50;57.50;;;;;;4991919;28;20049;-49
2022/08/20 00:33:39;;;;;;;1.30;0.90;;;25.50;57.60;;;;;;4994338;28;20414;-42
2022/08/20 00:36:08;;;;;;;1.58;0.90;;;25.50;57.80;;;;;;4990865;28;20117;-44
2022/08/20 00:38:38;;;;;;;3.83;1.33;;;25.50;57.40;;;;;;4991320;28;20066;-43
2022/08/20 00:41:04;;;;;;;1.33;1.05;;;25.50;57.40;;;;;;4976094;28;20113;-42
2022/08/20 00:43:38;;;;;;;1.20;0.90;;;25.50;57.50;;;;;;4992254;28;20107;-42
2022/08/20 00:46:10;;;;;;;1.45;0.90;;;25.50;57.60;;;;;;4992189;28;20030;-42
2022/08/20 00:48:39;;;;;;;2.42;1.10;;;25.50;57.60;;;;;;4992066;28;20062;-43
2022/08/20 00:51:16;;;;;;;0.80;0.80;;;25.50;57.50;;;;;;4990002;28;20040;-43
2022/08/20 00:53:43;;;;;;;2.20;0.85;;;25.40;57.50;;;;;;4992785;28;20031;-42
2022/08/20 00:56:10;;;;;;;1.35;1.00;;;25.50;57.40;;;;;;4991396;28;20018;-46
2022/08/20 00:58:37;;;;;;;1.08;0.98;;;25.50;57.50;;;;;;4992287;28;20062;-42
2022/08/20 01:01:05;;;;;;;0.77;0.70;;;25.50;57.40;;;;;;4992331;28;20031;-45
2022/08/20 01:03:32;;;;;;;1.45;0.70;;;25.50;57.50;;;;;;4991786;28;20037;-42
2022/08/20 01:05:57;;;;;;;1.45;0.80;;;25.50;57.50;;;;;;4995922;28;20399;-43
2022/08/20 01:08:25;;;;;;;0.80;0.80;;;25.50;57.60;;;;;;4990186;28;20034;-43
2022/08/20 01:11:06;;;;;;;1.20;0.90;;;25.50;57.50;;;;;;4992238;28;20031;-42
2022/08/20 01:13:36;;;;;;;0.82;0.60;;;25.50;57.40;;;;;;4991739;28;20222;-44
2022/08/20 01:16:06;;;;;;;0.95;0.70;;;25.50;57.60;;;;;;4991168;28;20034;-47
2022/08/20 01:18:32;;;;;;;1.40;0.95;;;25.50;57.40;;;;;;4991527;28;20659;-42
2022/08/20 01:21:00;;;;;;;0.90;0.65;;;25.50;57.50;;;;;;4992319;28;20038;-42
2022/08/20 01:23:48;;;;;;;1.08;0.80;;;25.50;57.50;;;;;;4991091;28;20387;-44
2022/08/20 01:26:23;;;;;;;1.73;0.93;;;25.50;57.40;;;;;;4988596;28;20176;-50
2022/08/20 01:29:01;;;;;;;1.35;0.93;;;25.50;57.50;;;;;;4992383;28;20062;-43
2022/08/20 01:31:30;;;;;;;0.90;0.70;;;25.50;57.50;;;;;;4990819;28;20038;-44
2022/08/20 01:33:57;;;;;;;0.73;0.73;;;25.50;57.30;;;;;;4995799;28;20023;-43
2022/08/20 01:36:30;;;;;;;0.80;0.80;;;25.50;57.30;;;;;;4993827;28;20037;-42
2022/08/20 01:38:57;;;;;;;1.25;0.88;;;25.60;57.30;;;;;;4995882;28;20029;-43
2022/08/20 01:41:32;;;;;;;1.55;0.80;;;25.50;57.00;;;;;;4995511;28;20088;-42
2022/08/20 01:43:58;;;;;;;1.13;0.82;;;25.50;57.20;;;;;;4995347;28;20037;-45
2022/08/20 01:46:31;;;;;;;0.80;0.70;;;25.40;57.50;;;;;;4993744;28;20565;-43
2022/08/20 01:48:58;;;;;;;1.63;0.80;;;25.40;57.40;;;;;;4996127;28;20041;-42
2022/08/20 01:51:28;;;;;;;1.60;0.90;;;25.40;57.20;;;;;;4994869;28;20046;-42
2022/08/20 01:53:55;;;;;;;1.80;0.80;;;25.50;57.20;;;;;;4995944;28;20045;-43
2022/08/20 01:56:24;;;;;;;1.38;0.75;;;25.50;57.20;;;;;;4991330;28;20455;-42
2022/08/20 01:58:53;;;;;;;0.82;0.77;;;25.50;57.40;;;;;;4992231;28;20550;-43
2022/08/20 02:01:39;;;;;;;2.08;0.98;;;25.50;57.20;;;;;;4994660;28;20054;-44
2022/08/20 02:04:08;;;;;;;1.75;1.15;;;25.50;57.30;;;;;;4995613;28;20030;-42
2022/08/20 02:06:39;;;;;;;0.47;0.45;;;25.50;57.30;;;;;;4994465;28;20917;-42
2022/08/20 02:09:05;;;;;;;1.60;0.80;;;25.40;57.30;;;;;;4995320;28;20388;-43
2022/08/20 02:11:33;;;;;;;1.08;0.88;;;25.50;57.40;;;;;;4994435;28;20134;-43
2022/08/20 02:13:59;;;;;;;0.68;0.60;;;25.50;57.10;;;;;;4991156;28;20037;-43
2022/08/20 02:16:30;;;;;;;0.75;0.70;;;25.40;57.20;;;;;;4992753;28;20054;-43
2022/08/20 02:19:02;;;;;;;0.80;0.80;;;25.50;57.40;;;;;;4995243;28;20026;-42
2022/08/20 02:21:31;;;;;;;0.70;0.68;;;25.50;57.40;;;;;;4994450;28;20034;-42
2022/08/20 02:23:58;;;;;;;0.80;0.63;;;25.50;57.30;;;;;;4995133;28;20081;-42
2022/08/20 02:26:24;;;;;;;1.45;0.98;;;25.50;57.20;;;;;;4993799;28;20113;-42
2022/08/20 02:28:51;;;;;;;0.60;0.60;;;25.50;57.10;;;;;;4994809;28;20030;-42
2022/08/20 02:31:20;;;;;;;2.03;0.88;;;25.50;57.10;;;;;;4992959;28;20442;-49
2022/08/20 02:33:47;;;;;;;0.73;0.60;;;25.60;57.20;;;;;;4994792;28;20034;-43
2022/08/20 02:36:16;;;;;;;1.13;0.68;;;25.60;57.20;;;;;;4993847;28;20057;-42
2022/08/20 02:38:43;;;;;;;1.00;0.70;;;25.60;57.10;;;;;;4994519;28;20019;-42
2022/08/20 02:41:09;;;;;;;0.80;0.80;;;25.50;57.10;;;;;;4994472;28;20372;-43
2022/08/20 02:43:36;;;;;;;1.05;0.70;;;25.50;57.20;;;;;;4993641;28;20077;-42
2022/08/20 02:46:03;;;;;;;1.00;0.90;;;25.50;57.10;;;;;;4991485;28;20057;-42
2022/08/20 02:48:30;;;;;;;0.90;0.70;;;25.50;57.10;;;;;;4993255;28;20035;-42
2022/08/20 02:51:00;;;;;;;1.52;0.77;;;25.50;57.10;;;;;;4994503;28;20097;-42
2022/08/20 02:53:28;;;;;;;1.00;0.80;;;25.60;57.20;;;;;;4993792;28;20031;-42
2022/08/20 02:55:55;;;;;;;1.23;0.70;;;25.60;57.10;;;;;;4993183;28;20084;-42
2022/08/20 02:58:21;;;;;;;1.55;0.80;;;25.60;57.10;;;;;;4986635;28;20026;-50
2022/08/20 03:00:48;;;;;;;0.95;0.52;;;25.60;57.20;;;;;;4994135;28;20053;-42
2022/08/20 03:03:14;;;;;;;1.48;0.80;;;25.60;57.10;;;;;;4993086;28;20506;-44
2022/08/20 03:05:42;;;;;;;2.03;0.80;;;25.60;57.10;;;;;;4991277;28;20640;-44
2022/08/20 03:08:11;;;;;;;1.35;0.73;;;25.60;57.20;;;;;;4994209;28;20113;-42
2022/08/20 03:10:41;;;;;;;3.33;0.63;;;25.50;57.00;;;;;;4992381;28;20495;-42
2022/08/20 03:13:11;;;;;;;0.93;0.90;;;25.60;57.10;;;;;;4994631;28;20064;-42
2022/08/20 03:15:39;;;;;;;1.30;0.88;;;25.60;57.10;;;;;;4993030;28;20031;-47
2022/08/20 03:18:05;;;;;;;0.88;0.75;;;25.60;57.10;;;;;;4993427;28;20030;-43
2022/08/20 03:20:30;;;;;;;2.15;0.70;;;25.60;57.20;;;;;;4990631;28;20041;-42
2022/08/20 03:22:57;;;;;;;1.20;0.70;;;25.60;57.20;;;;;;4993378;28;20042;-43
2022/08/20 03:25:23;;;;;;;1.38;0.98;;;25.60;57.20;;;;;;4985620;28;20035;-47
2022/08/20 03:27:49;;;;;;;1.75;0.75;;;25.60;57.10;;;;;;4984205;28;20030;-42
2022/08/20 03:30:18;;;;;;;0.80;0.75;;;25.60;57.20;;;;;;4986021;28;20093;-42
2022/08/20 03:32:44;;;;;;;1.15;0.85;;;25.60;57.20;;;;;;4980936;28;20053;-42
2022/08/20 03:35:12;;;;;;;0.98;0.80;;;25.60;57.20;;;;;;4982829;28;20513;-44
2022/08/20 03:37:39;;;;;;;0.85;0.60;;;25.60;57.20;;;;;;4985718;28;20120;-44
2022/08/20 03:40:10;;;;;;;1.23;0.80;;;25.60;57.10;;;;;;4984694;28;20034;-42
2022/08/20 03:42:36;;;;;;;1.27;1.00;;;25.60;57.10;;;;;;4980468;28;20034;-43
2022/08/20 03:45:02;;;;;;;0.98;0.80;;;25.60;57.10;;;;;;4982184;28;20058;-42
2022/08/20 03:47:31;;;;;;;0.80;0.80;;;25.60;57.20;;;;;;4983500;28;20400;-44
2022/08/20 03:49:58;;;;;;;1.17;0.93;;;25.60;57.20;;;;;;4985497;28;20034;-42
2022/08/20 03:52:24;;;;;;;2.08;1.00;;;25.60;57.20;;;;;;4983804;28;20037;-50
2022/08/20 03:54:50;;;;;;;1.45;0.70;;;25.60;57.90;;;;;;4988366;28;20026;-42
2022/08/20 03:57:16;;;;;;;0.88;0.88;;;25.60;57.20;;;;;;4982328;28;20085;-43
2022/08/20 03:59:43;;;;;;;2.08;1.67;;;25.60;57.30;;;;;;4984192;28;20034;-42
2022/08/20 04:02:10;;;;;;;1.23;1.13;;;25.50;57.30;;;;;;4988016;28;20048;-44
2022/08/20 04:04:37;;;;;;;1.85;0.90;;;25.50;57.30;;;;;;4984970;28;20379;-42
2022/08/20 04:07:15;;;;;;;1.42;0.80;;;25.60;57.30;;;;;;4987371;28;20034;-42
2022/08/20 04:09:42;;;;;;;0.93;0.80;;;25.60;57.30;;;;;;4981471;28;20101;-44
2022/08/20 04:12:11;;;;;;;1.00;0.90;;;25.50;57.30;;;;;;4983800;28;20042;-44
2022/08/20 04:14:39;;;;;;;1.30;0.90;;;25.60;57.30;;;;;;4982202;28;20041;-43
2022/08/20 04:17:07;;;;;;;1.00;0.82;;;25.60;57.30;;;;;;4966049;28;20058;-42
2022/08/20 04:19:33;;;;;;;1.13;0.70;;;25.60;57.30;;;;;;4991914;28;20033;-43
2022/08/20 04:21:59;;;;;;;1.60;0.80;;;25.60;57.30;;;;;;4993120;28;20049;-43
2022/08/20 04:24:26;;;;;;;1.65;1.10;;;25.60;57.40;;;;;;4991344;28;20451;-43
2022/08/20 04:26:52;;;;;;;1.13;1.02;;;25.50;57.50;;;;;;4990133;28;20073;-42
2022/08/20 04:29:18;;;;;;;1.83;0.90;;;25.60;57.50;;;;;;4992837;28;20030;-42
2022/08/20 04:31:43;;;;;;;1.13;1.02;;;25.50;57.40;;;;;;4991887;28;20049;-42
2022/08/20 04:34:09;;;;;;;1.00;0.80;;;25.50;57.40;;;;;;4992884;28;20030;-42
2022/08/20 04:36:35;;;;;;;2.25;1.02;;;25.60;57.40;;;;;;4992013;28;20107;-42
2022/08/20 04:39:00;;;;;;;1.95;1.20;;;25.60;57.50;;;;;;4992569;28;20435;-42
2022/08/20 04:41:26;;;;;;;1.13;1.00;;;25.60;57.50;;;;;;4990165;28;20081;-46
2022/08/20 04:43:54;;;;;;;1.33;0.90;;;25.60;57.40;;;;;;4991944;28;20030;-42
2022/08/20 04:46:22;;;;;;;0.90;0.90;;;25.60;57.60;;;;;;4992049;28;20026;-48
2022/08/20 04:48:48;;;;;;;1.63;0.90;;;25.50;58.00;;;;;;4992427;28;20034;-43
2022/08/20 04:51:13;;;;;;;1.35;1.10;;;25.50;58.00;;;;;;4992589;28;20038;-42
2022/08/20 04:53:40;;;;;;;1.20;1.00;;;25.50;58.50;;;;;;4991690;28;20022;-43
2022/08/20 04:56:06;;;;;;;1.83;1.23;;;25.50;58.70;;;;;;4992358;28;20022;-43
2022/08/20 04:58:36;;;;;;;1.10;1.00;;;25.50;58.90;;;;;;4986377;28;20070;-42
2022/08/20 05:01:05;;;;;;;1.75;1.15;;;25.50;59.10;;;;;;4992009;28;20498;-44
2022/08/20 05:03:31;;;;;;;3.17;1.20;;;25.40;59.30;;;;;;4990801;28;20038;-44
2022/08/20 05:05:57;;;;;;;1.70;1.30;;;25.40;60.00;;;;;;4996108;28;20041;-43
2022/08/20 05:08:24;;;;;;;1.45;1.00;;;25.40;59.90;;;;;;4991470;28;20018;-50
2022/08/20 05:10:51;;;;;;;4.93;2.13;;;25.40;60.00;;;;;;4989749;28;20388;-43
2022/08/20 05:13:17;;;;;;;1.67;1.10;;;25.40;60.00;;;;;;4991966;28;20054;-43
2022/08/20 05:15:44;;;;;;;1.20;1.02;;;25.40;60.00;;;;;;4991199;28;20033;-42
2022/08/20 05:18:11;;;;;;;1.00;0.88;;;25.40;60.00;;;;;;4989576;28;20510;-42
2022/08/20 05:20:40;;;;;;;2.17;1.30;;;25.40;60.00;;;;;;4991429;28;20054;-43
2022/08/20 05:23:08;;;;;;;1.10;0.93;;;25.40;60.00;;;;;;4990770;28;20034;-43
2022/08/20 05:25:34;;;;;;;3.72;1.48;;;25.40;60.00;;;;;;4991434;28;20435;-42
2022/08/20 05:28:22;;;;;;;1.80;1.40;;;25.40;60.10;;;;;;4992386;28;20034;-42
2022/08/20 05:30:49;;;;;;;1.77;1.20;;;25.50;60.00;;;;;;4988415;28;20125;-43
2022/08/20 05:33:17;;;;;;;1.83;1.40;;;25.50;60.10;;;;;;4992100;28;20073;-42
2022/08/20 05:35:43;;;;;;;1.65;1.20;;;25.50;60.10;;;;;;4985824;28;20118;-42
2022/08/20 05:38:11;;;;;;;1.63;1.35;;;25.50;60.10;;;;;;4992199;28;20457;-42
2022/08/20 05:40:39;;;;;;;1.50;1.30;;;25.50;60.20;;;;;;4985409;28;20565;-43
2022/08/20 05:43:05;;;;;;;1.58;1.40;;;25.50;60.20;;;;;;4984836;28;20061;-42
2022/08/20 05:45:32;;;;;;;2.55;1.40;;;25.50;60.10;;;;;;4991259;28;20062;-42
2022/08/20 05:47:58;;;;;;;1.40;1.17;;;25.50;60.20;;;;;;4983978;28;20042;-42
2022/08/20 05:50:24;;;;;;;1.27;1.10;;;25.50;60.30;;;;;;4990709;28;20034;-51
2022/08/20 05:52:50;;;;;;;1.95;1.50;;;25.50;60.20;;;;;;4986475;28;20037;-42
2022/08/20 05:55:16;;;;;;;1.63;1.40;;;25.50;60.30;;;;;;4991613;28;20030;-45
2022/08/20 05:57:41;;;;;;;1.60;1.30;;;25.50;60.30;;;;;;4990906;28;20131;-47
2022/08/20 06:00:11;;;;;;;1.98;1.40;;;25.40;61.30;;;;;;4992463;28;20058;-44
2022/08/20 06:05:21;;;;;;;3.08;1.80;;;25.10;62.20;;;;;;4992664;28;20395;-46
2022/08/20 06:07:49;;;;;;;3.58;1.80;;;24.90;63.10;;;;;;4990868;28;20026;-45
2022/08/20 06:10:16;;;;;;;2.63;1.80;;;24.80;63.50;;;;;;4990217;28;20057;-44
2022/08/20 06:12:44;;;;;;;2.75;1.73;;;24.70;64.10;;;;;;4989918;28;20455;-43
2022/08/20 06:15:11;;;;;;;1.88;1.67;;;24.70;64.00;;;;;;4991170;28;20038;-45
2022/08/20 06:17:37;;;;;;;2.03;1.73;;;24.60;64.00;;;;;;4988758;28;20341;-51
2022/08/20 06:20:06;;;;;;;1.73;1.60;;;24.60;64.50;;;;;;4993408;28;20038;-45
2022/08/20 06:22:32;;;;;;;1.88;1.52;;;24.60;65.70;;;;;;4992813;28;20026;-47
2022/08/20 06:24:58;;;;;;;1.88;1.60;;;24.60;65.90;;;;;;4987314;28;20027;-44
2022/08/20 06:27:25;;;;;;;2.05;1.67;;;24.50;64.80;;;;;;4998016;28;20034;-43
2022/08/20 06:29:52;;;;;;;7.50;2.00;;;24.50;64.00;;;;;;4988466;28;20042;-42
2022/08/20 06:32:20;;;;;;;3.05;2.03;;;24.60;64.90;;;;;;4987925;28;20038;-41
2022/08/20 06:34:45;;;;;;;2.65;2.10;;;24.60;64.50;;;;;;4970492;28;20026;-42
2022/08/20 06:37:20;;;;;;;2.03;1.83;;;24.60;64.00;;;;;;4970034;28;20118;-42
2022/08/20 06:39:46;;;;;;;1.88;1.60;;;24.60;63.80;;;;;;4987472;28;20026;-44
2022/08/20 06:42:12;;;;;;;3.15;1.63;;;24.60;64.00;;;;;;4989678;28;20117;-51
2022/08/20 06:44:38;;;;;;;2.30;1.60;;;24.50;63.70;;;;;;4989768;28;20054;-43
2022/08/20 06:47:05;;;;;;;1.42;1.33;;;24.60;64.20;;;;;;4988376;28;20058;-42
2022/08/20 06:49:34;;;;;;;2.95;1.83;;;24.50;63.60;;;;;;4987570;28;20040;-44
2022/08/20 06:51:59;;;;;;;2.67;1.55;;;24.50;63.80;;;;;;4986457;28;20053;-46
2022/08/20 06:54:25;;;;;;;2.97;1.60;;;24.50;64.20;;;;;;4988459;28;20459;-49
2022/08/20 06:56:53;;;;;;;2.10;1.70;;;24.50;63.60;;;;;;4985517;28;20039;-43
2022/08/20 06:59:19;;;;;;;2.03;1.70;;;24.40;63.50;;;;;;4973019;28;20046;-45
2022/08/20 07:01:45;;;;;;;2.17;1.70;;;24.50;64.10;;;;;;4988639;28;20121;-42
2022/08/20 07:04:11;;;;;;;2.03;1.60;;;24.50;63.70;;;;;;4988612;28;20046;-45
2022/08/20 07:06:37;;;;;;;2.25;1.75;;;24.50;63.70;;;;;;4973701;28;20410;-43
2022/08/20 07:09:02;;;;;;;3.30;1.73;;;24.50;63.70;;;;;;4988458;28;20061;-45
2022/08/20 07:11:28;;;;;;;1.75;1.65;;;24.60;63.50;;;;;;4989684;28;20065;-51
2022/08/20 07:13:57;;;;;;;3.15;1.90;;;24.60;63.80;;;;;;4985975;28;20097;-41
2022/08/20 07:16:23;;;;;;;4.05;2.30;;;24.60;63.90;;;;;;4987095;28;20133;-46
2022/08/20 07:18:49;;;;;;;2.55;2.10;;;24.60;63.80;;;;;;4985313;28;20031;-44
2022/08/20 07:21:16;;;;;;;2.75;1.70;;;24.60;63.80;;;;;;4985969;28;20038;-44
2022/08/20 07:23:41;;;;;;;1.88;1.52;;;24.70;64.00;;;;;;4984106;28;20034;-41
2022/08/20 07:26:07;;;;;;;2.67;1.55;;;24.60;63.20;;;;;;4985276;28;20038;-42
2022/08/20 07:28:33;;;;;;;1.75;1.65;;;24.70;62.90;;;;;;4981996;28;20041;-44
2022/08/20 07:33:43;;;;;;;3.03;1.77;;;24.60;63.70;;;;;;4980898;28;20094;-44
2022/08/20 07:36:09;;;;;;;2.83;1.60;;;24.60;63.40;;;;;;4986029;28;20042;-44
2022/08/20 07:38:36;;;;;;;1.95;1.50;;;24.70;63.60;;;;;;4979890;28;20110;-44
2022/08/20 07:41:08;;;;;;;2.03;1.80;;;24.70;63.10;;;;;;4982372;28;20370;-43
2022/08/20 07:43:34;;;;;;;2.03;1.60;;;24.80;63.60;;;;;;4982277;28;20041;-48
2022/08/20 07:46:06;;;;;;;2.33;2.10;;;24.80;63.80;;;;;;4983155;28;20039;-45
2022/08/20 07:48:32;;;;;;;2.97;1.45;;;24.80;64.20;;;;;;4982059;28;20026;-44
2022/08/20 07:51:02;;;;;;;2.45;1.80;;;24.80;64.20;;;;;;4982755;28;20097;-43
2022/08/20 07:53:27;;;;;;;3.15;2.00;;;24.80;65.10;;;;;;4983600;28;20022;-52
2022/08/20 07:55:53;;;;;;;2.58;1.75;;;24.80;65.40;;;;;;4982139;28;20085;-44
2022/08/20 07:58:23;;;;;;;3.33;2.40;;;24.80;64.90;;;;;;4982040;28;20030;-44
2022/08/20 08:00:50;;;;;;;1.95;1.75;;;24.80;64.80;;;;;;4981321;28;20144;-47
2022/08/20 08:03:16;;;;;;;4.95;2.03;;;24.90;65.40;;;;;;4986074;28;20098;-48
2022/08/20 08:05:45;;;;;;;2.10;1.70;;;24.90;65.10;;;;;;4986770;28;20062;-41
2022/08/20 08:08:16;;;;;;;2.38;1.90;;;24.90;64.90;;;;;;4987416;28;20034;-43
2022/08/20 08:10:44;;;;;;;4.00;1.57;;;24.90;64.60;;;;;;4981896;28;20566;-43
2022/08/20 08:13:12;;;;;;;2.45;1.77;;;24.90;64.60;;;;;;4986818;28;20274;-44
2022/08/20 08:15:40;;;;;;;2.33;1.85;;;24.90;64.40;;;;;;4982488;28;20101;-46
2022/08/20 08:18:20;;;;;;;1.85;1.60;;;25.00;64.00;;;;;;4984649;28;20486;-44
2022/08/20 08:20:47;;;;;;;3.08;1.92;;;25.00;64.00;;;;;;4980827;28;20042;-46
2022/08/20 08:23:13;;;;;;;3.08;1.80;;;25.00;63.50;;;;;;4983930;28;20030;-51
2022/08/20 08:25:44;;;;;;;1.90;1.50;;;25.00;63.70;;;;;;4986922;28;20476;-43
2022/08/20 08:28:11;;;;;;;2.22;1.50;;;25.00;63.50;;;;;;4984509;28;20045;-46
2022/08/20 08:30:42;;;;;;;1.70;1.50;;;25.10;63.30;;;;;;4988248;28;20133;-44
2022/08/20 08:33:31;;;;;;;1.98;1.52;;;25.10;63.10;;;;;;4986824;28;20105;-46
2022/08/20 08:36:25;;;;;;;2.42;1.88;;;25.10;62.90;;;;;;4988069;28;20040;-42
2022/08/20 08:38:50;;;;;;;2.20;1.80;;;25.10;62.80;;;;;;4982782;28;20124;-42
2022/08/20 08:41:18;;;;;;;3.13;2.10;;;25.00;62.50;;;;;;4984456;28;20061;-43
2022/08/20 08:43:47;;;;;;;3.97;1.80;;;25.10;62.40;;;;;;4984168;28;20026;-38
2022/08/20 08:46:16;;;;;;;2.08;1.38;;;25.10;62.40;;;;;;4988118;28;20030;-41
2022/08/20 08:48:47;;;;;;;2.72;1.90;;;25.10;62.20;;;;;;4986132;28;20117;-42
2022/08/20 08:51:20;;;;;;;2.53;1.65;;;25.10;62.70;;;;;;4968638;28;20495;-44
2022/08/20 08:53:52;;;;;;;1.73;1.63;;;25.10;62.60;;;;;;4986119;28;20096;-42
2022/08/20 08:56:18;;;;;;;2.78;1.77;;;25.10;62.30;;;;;;4984587;28;20035;-42
2022/08/20 08:58:44;;;;;;;2.28;1.60;;;25.20;62.20;;;;;;4967504;28;20058;-41
2022/08/20 09:01:16;;;;;;;3.33;1.75;;;25.20;62.10;;;;;;4984701;28;20050;-42
2022/08/20 09:03:46;;;;;;;2.80;1.90;;;25.20;62.10;;;;;;4986874;28;20502;-42
2022/08/20 09:06:15;;;;;;;2.60;1.90;;;25.20;62.20;;;;;;4991635;28;20030;-45
2022/08/20 09:09:03;;;;;;;2.78;1.80;;;25.20;62.50;;;;;;4969937;28;20388;-41
2022/08/20 09:11:30;;;;;;;1.60;1.50;;;25.20;61.60;;;;;;4988853;28;20061;-50
2022/08/20 09:13:57;;;;;;;1.90;1.67;;;25.20;60.70;;;;;;4987018;28;20126;-40
2022/08/20 09:16:24;;;;;;;1.60;1.30;;;25.20;60.40;;;;;;4986262;28;20031;-41
2022/08/20 09:18:51;;;;;;;1.90;1.70;;;25.10;60.20;;;;;;4984640;28;20542;-40
2022/08/20 09:21:17;;;;;;;2.75;1.80;;;25.10;60.30;;;;;;4982994;28;20030;-44
2022/08/20 09:23:43;;;;;;;3.58;1.98;;;25.20;60.50;;;;;;4985378;28;20042;-43
2022/08/20 09:26:09;;;;;;;1.90;1.70;;;25.30;59.90;;;;;;4984311;28;20037;-41
2022/08/20 09:28:35;;;;;;;2.83;1.80;;;25.30;59.80;;;;;;4980922;28;20474;-41
2022/08/20 09:31:01;;;;;;;3.42;1.67;;;25.30;60.00;;;;;;4983426;28;20050;-43
2022/08/20 09:33:27;;;;;;;3.17;1.88;;;25.40;60.30;;;;;;4984458;28;20045;-46
2022/08/20 09:35:53;;;;;;;2.15;1.85;;;25.40;60.20;;;;;;4987524;28;20027;-40
2022/08/20 09:38:19;;;;;;;2.33;1.65;;;25.40;60.10;;;;;;4987245;28;20041;-40
2022/08/20 09:40:44;;;;;;;1.80;1.30;;;25.40;60.00;;;;;;4988919;28;20117;-40
2022/08/20 09:43:10;;;;;;;1.35;1.25;;;25.40;59.60;;;;;;4985254;28;20125;-43
2022/08/20 09:45:37;;;;;;;1.10;1.00;;;25.30;59.40;;;;;;4988578;28;20049;-40
2022/08/20 09:48:03;;;;;;;2.65;1.48;;;25.30;59.40;;;;;;4985410;28;20100;-40
2022/08/20 09:50:33;;;;;;;2.15;1.10;;;25.40;59.30;;;;;;4984708;28;20869;-42
2022/08/20 09:53:00;;;;;;;2.05;1.10;;;25.50;59.00;;;;;;4981579;28;20058;-43
2022/08/20 09:55:36;;;;;;;0.80;0.80;;;25.50;59.10;;;;;;4988330;28;20045;-48
2022/08/20 09:58:25;;;;;;;1.02;0.88;;;25.40;58.60;;;;;;4989091;28;20031;-40
2022/08/20 10:00:52;;;;;;;0.90;0.90;;;25.40;58.60;;;;;;4988323;28;20080;-42
2022/08/20 10:03:18;;;;;;;2.10;1.15;;;25.40;58.60;;;;;;4990965;28;20045;-40
2022/08/20 10:05:44;;;;;;;1.02;1.00;;;25.40;58.90;;;;;;4989651;28;20419;-40
2022/08/20 10:08:11;;;;;;;2.58;1.27;;;25.40;59.10;;;;;;4989384;28;20038;-44
2022/08/20 10:10:37;;;;;;;2.50;1.00;;;25.30;59.30;;;;;;4988143;28;20038;-40
2022/08/20 10:13:03;;;;;;;1.25;1.15;;;25.30;59.60;;;;;;4984577;28;20040;-40
2022/08/20 10:15:29;;;;;;;2.03;0.80;;;25.30;59.30;;;;;;4984240;28;20562;-48
2022/08/20 10:17:56;;;;;;;1.00;0.60;;;25.20;59.00;;;;;;4988319;28;20026;-40
2022/08/20 10:20:23;;;;;;;1.42;0.90;;;25.30;58.60;;;;;;4981690;28;20066;-41
2022/08/20 10:22:49;;;;;;;1.10;0.60;;;25.20;58.60;;;;;;4985330;28;20191;-39
2022/08/20 10:25:16;;;;;;;1.42;0.77;;;25.30;58.50;;;;;;4984679;28;20038;-41
2022/08/20 10:27:42;;;;;;;1.33;0.80;;;25.30;58.60;;;;;;4986539;28;20077;-40
2022/08/20 10:30:09;;;;;;;1.52;0.90;;;25.30;58.90;;;;;;4988824;28;20060;-39
2022/08/20 10:32:35;;;;;;;0.70;0.70;;;25.30;59.10;;;;;;4991500;28;20467;-40
2022/08/20 10:35:01;;;;;;;1.02;0.73;;;25.40;59.30;;;;;;4979532;28;20046;-39
2022/08/20 10:37:27;;;;;;;0.65;0.63;;;25.30;59.60;;;;;;4983826;28;20551;-44
2022/08/20 10:39:53;;;;;;;0.88;0.70;;;25.20;59.40;;;;;;4988750;28;20130;-40
2022/08/20 10:42:19;;;;;;;0.43;0.43;;;25.20;59.50;;;;;;4987784;28;20109;-40
2022/08/20 10:44:44;;;;;;;1.50;0.60;;;25.20;59.50;;;;;;4992296;28;20109;-39
2022/08/20 10:47:16;;;;;;;0.40;0.40;;;25.30;59.30;;;;;;4994272;28;20027;-39
2022/08/20 10:49:41;;;;;;;0.60;0.50;;;25.30;58.90;;;;;;4991489;28;20029;-40
2022/08/20 10:52:07;;;;;;;3.15;0.47;;;25.20;59.10;;;;;;4993196;28;20030;-40
2022/08/20 10:54:33;;;;;;;1.95;0.50;;;25.20;59.30;;;;;;4989745;28;20038;-40
2022/08/20 10:57:03;;;;;;;1.25;0.50;;;25.20;59.20;;;;;;4991348;28;20098;-40
2022/08/20 10:59:29;;;;;;;0.50;0.50;;;25.30;59.00;;;;;;4983118;28;20047;-43
2022/08/20 11:01:54;;;;;;;0.88;0.88;;;25.30;59.50;;;;;;4991532;28;20034;-40
2022/08/20 11:04:20;;;;;;;2.20;0.68;;;25.20;58.90;;;;;;4985244;28;20019;-40
2022/08/20 11:06:45;;;;;;;1.27;0.50;;;25.30;58.80;;;;;;4983558;28;20153;-43
2022/08/20 11:09:11;;;;;;;1.45;0.52;;;25.20;59.20;;;;;;4993202;28;20041;-40
2022/08/20 11:11:37;;;;;;;0.70;0.55;;;25.20;58.80;;;;;;4982975;28;20099;-46
2022/08/20 11:14:02;;;;;;;1.33;0.47;;;25.20;58.80;;;;;;4971777;28;20058;-41
2022/08/20 11:16:29;;;;;;;0.90;0.50;;;25.20;58.80;;;;;;4980385;28;20039;-43
2022/08/20 11:18:54;;;;;;;1.58;0.70;;;25.20;58.70;;;;;;4982527;28;20031;-41
2022/08/20 11:21:20;;;;;;;2.22;0.63;;;25.30;58.50;;;;;;4991596;28;20027;-38
2022/08/20 11:23:46;;;;;;;1.65;0.63;;;25.20;58.30;;;;;;4983385;28;20026;-39
2022/08/20 11:26:20;;;;;;;0.85;0.52;;;25.20;58.20;;;;;;4986796;28;20038;-39
2022/08/20 11:28:46;;;;;;;0.52;0.43;;;25.30;58.20;;;;;;4996423;28;20030;-39
2022/08/20 11:31:11;;;;;;;0.40;0.40;;;25.40;57.70;;;;;;4999596;28;20810;-38
2022/08/20 11:33:37;;;;;;;1.40;0.47;;;25.50;57.60;;;;;;4980858;28;20034;-43
2022/08/20 11:36:03;;;;;;;2.60;0.30;;;25.50;57.50;;;;;;4981258;28;20042;-38
2022/08/20 11:38:29;;;;;;;0.90;0.50;;;25.50;57.20;;;;;;4983477;28;20089;-41
2022/08/20 11:40:54;;;;;;;1.95;0.50;;;25.40;57.20;;;;;;4986141;28;20077;-38
2022/08/20 11:43:20;;;;;;;1.20;0.50;;;25.40;57.10;;;;;;4996843;28;20132;-39
2022/08/20 11:45:53;;;;;;;0.40;0.40;;;25.50;57.30;;;;;;4985602;28;20038;-39
2022/08/20 11:48:19;;;;;;;0.35;0.32;;;25.50;56.50;;;;;;4977579;28;20034;-46
2022/08/20 11:50:45;;;;;;;0.30;0.30;;;;;;;;;;4979842;28;20069;-41
2022/08/20 11:53:12;;;;;;;1.10;0.50;;;;;;;;;;4986762;28;20054;-44
2022/08/20 11:55:38;;;;;;;1.65;0.30;;;;;;;;;;4987034;28;20041;-46
2022/08/20 11:58:04;;;;;;;0.35;0.35;;;;;;;;;;4987124;28;20057;-44
2022/08/20 12:00:30;;;;;;;1.35;0.40;;;;;;;;;;4985950;28;20042;-50
2022/08/20 12:02:57;;;;;;;0.55;0.38;;;;;;;;;;4992728;28;20029;-42
2022/08/20 12:05:23;;;;;;;0.60;0.50;;;;;;;;;;4987159;28;20031;-41
2022/08/20 12:07:49;;;;;;;0.55;0.38;;;;;;;;;;4979126;28;20027;-43
2022/08/20 12:10:15;;;;;;;0.63;0.40;;;;;;;;;;4983170;28;20062;-49
2022/08/20 12:12:41;;;;;;;1.38;0.50;;;;;;;;;;4981503;28;20033;-51
2022/08/20 12:15:09;;;;;;;1.27;0.60;;;;;;;;;;4982173;28;20653;-43
2022/08/20 12:17:35;;;;;;;0.40;0.40;;;;;;;;;;4983075;28;20472;-45
2022/08/20 12:20:04;;;;;;;0.40;0.40;;;;;;;;;;4983124;28;20100;-42
2022/08/20 12:22:30;;;;;;;0.85;0.60;;;;;;;;;;4982926;28;20029;-49
2022/08/20 12:24:56;;;;;;;0.60;0.40;;;;;;;;;;4983889;28;20463;-46
2022/08/20 12:27:30;;;;;;;1.55;0.60;;;;;;;;;;4984393;28;20189;-47
2022/08/20 12:29:57;;;;;;;0.63;0.30;;;;;;;;;;4981819;28;20039;-46
2022/08/20 12:32:25;;;;;;;0.65;0.40;;;;;;;;;;4980007;28;20022;-42
2022/08/20 12:34:51;;;;;;;0.50;0.50;;;;;;;;;;4978463;28;20111;-42
2022/08/20 12:37:18;;;;;;;0.50;0.40;;;;;;;;;;4984212;28;20542;-42
2022/08/20 12:39:46;;;;;;;1.38;0.50;;;;;;;;;;4978512;28;20035;-44
2022/08/20 12:42:13;;;;;;;1.08;0.40;;;;;;;;;;4980213;28;20070;-48
2022/08/20 12:44:39;;;;;;;0.93;0.50;;;;;;;;;;4980145;28;20030;-45
2022/08/20 12:47:05;;;;;;;0.82;0.50;;;;;;;;;;4983236;28;20041;-47
2022/08/20 12:49:31;;;;;;;1.88;0.45;;;;;;;;;;4982302;28;20046;-49
2022/08/20 12:51:57;;;;;;;1.60;0.77;;;;;;;;;;4983888;28;20076;-46
2022/08/20 12:54:23;;;;;;;0.65;0.52;;;;;;;;;;4985771;28;20046;-42
2022/08/20 12:56:50;;;;;;;2.60;0.43;;;;;;;;;;4982914;28;20021;-42
2022/08/20 12:59:17;;;;;;;1.05;0.50;;;;;;;;;;4984042;28;20050;-42
2022/08/20 13:01:43;;;;;;;0.88;0.40;;;;;;;;;;4983933;28;20018;-42
2022/08/20 13:04:09;;;;;;;0.93;0.40;;;;;;;;;;4982909;28;20065;-47
2022/08/20 13:06:35;;;;;;;0.60;0.50;;;;;;;;;;4982662;28;20113;-43